x

9442396 - La Push, Wa (lapw1) Weather Station

5:30 - Sun 21st Dec 2014 All times are PST. -8 hours from GMT.

  • Wind
    16mph, 23mph gusts
  • Sea Temp 46°f
  • Aire Temp 53°f
  • Sea Pressure 1008.9mb
  • 9442396 - La Push, Wa
  • 9442396 - La Push, Wa

More Historic Weather Station data

Upgrade to MSW Pro to gain access to the past 30 days of data for over 8000 Wavebouys and Weather Stations around the globe.

Join Pro

Comparision Forecast

View Surf forecast
   
dom 12/21 5:30 16 23 mph 1008.9mb 46f 53f
5:24 16 25 mph 1009mb 46f 53f
5:18 22 30 mph 1008.8mb 47f 53f
5:12 22 28 mph 1008.5mb 47f 53f
5:06 18 23 mph 1008.3mb 46f 53f
5:00 17 21 mph 1008.3mb 47f 53f
4:36 17 23 mph 1007.9mb 46f 52f
4:30 14 20 mph 1007.8mb 46f 53f
4:24 17 22 mph 1007.8mb 47f 53f
4:18 15 21 mph 1007.7mb 48f 53f
4:12 16 22 mph 1007.4mb 48f 53f
4:06 17 22 mph 1007.5mb 48f 53f
4:00 18 22 mph 1007.5mb 48f 53f
3:36 14 21 mph 1007.5mb 48f 53f
3:30 16 22 mph 1007.5mb 48f 53f
3:24 17 21 mph 1007.5mb 48f 53f
3:18 16 18 mph 1007.3mb 48f 53f
3:12 15 22 mph 1007.4mb 48f 53f
3:06 18 30 mph 1007.4mb 48f 53f
3:00 16 22 mph 1007.1mb 48f 53f
2:36 17 22 mph 1007mb 48f 53f
2:30 15 22 mph 1006.7mb 48f 53f
2:24 16 23 mph 1006.6mb 48f 53f
2:18 18 22 mph 1006.3mb 48f 53f
2:12 15 21 mph 1006.4mb 48f 53f
2:06 16 23 mph 1006.1mb 48f 53f
2:00 16 22 mph 1006mb 48f 53f
1:36 16 22 mph 1005.1mb 48f 53f
1:30 18 25 mph 1005mb 48f 53f
1:24 15 22 mph 1004.8mb 48f 53f
1:18 15 22 mph 1004.6mb 48f 53f
1:12 17 22 mph 1004.4mb 48f 53f
1:06 14 21 mph 1004.6mb 48f 53f
1:00 15 20 mph 1004.6mb 48f 53f
12:36 15 21 mph 1003.9mb 48f 53f
12:30 17 23 mph 1004mb 48f 53f
12:24 17 25 mph 1004.1mb 48f 53f
12:18 22 26 mph 1004.1mb 48f 53f
12:12 18 25 mph 1003.9mb 48f 53f
12:06 18 25 mph 1003.7mb 48f 53f
12:00 17 23 mph 1003.6mb 48f 53f
sáb 12/20 11:36 16 24 mph 1002.3mb 48f 53f
11:30 18 22 mph 1001.9mb 48f 52f
11:24 20 25 mph 1001.9mb 48f 53f
11:18 18 25 mph 1001.7mb 48f 53f
11:12 20 26 mph 1001.5mb 48f 53f
11:06 15 23 mph 1001mb 48f 53f
11:00 17 22 mph - - 53f
10:18  -  mph 1000.4mb 48f -
10:12  -  mph 1000mb 48f -
10:06  -  mph 1000mb 48f -
10:00  -  mph 999.9mb 48f -
9:36 28 44 mph 999.2mb 47f 55f
9:30 33 41 mph 999.2mb 47f 55f
9:24 29 37 mph 998.9mb 47f 55f
9:18 31 37 mph 998.7mb 47f 55f
9:12 28 33 mph 998.4mb 47f 55f
9:06 22 29 mph 998.1mb 47f 55f
9:00 24 34 mph 997.9mb 47f 55f
8:36 21 31 mph 997.1mb 47f 55f
8:30 22 30 mph 997.3mb 47f 55f
8:24 23 33 mph 997.2mb 47f 55f
8:18 17 34 mph 997.1mb 47f 55f
8:12 23 33 mph 997.2mb 47f 55f
8:06 21 31 mph 997.1mb 47f 55f
8:00 22 33 mph 997.1mb 46f 55f
7:36 25 34 mph 996.9mb 46f 55f
7:30 25 32 mph 996.9mb 47f 55f
7:24 25 32 mph 996.9mb 46f 55f
7:18 25 34 mph 996.8mb 46f 55f
7:12 26 34 mph 996.8mb 46f 55f
7:06 26 34 mph 996.8mb 46f 55f
7:00 24 34 mph 996.7mb 46f 55f
6:36 23 32 mph 996.4mb 46f 55f
6:30 23 30 mph 996.4mb 46f 55f
6:24 24 33 mph 996.4mb 46f 55f
6:18 26 32 mph 996.4mb 46f 55f
6:12 26 40 mph 996.4mb 47f 55f
6:06 24 37 mph 996.3mb 46f 55f
6:00 25 36 mph 996.2mb 46f 55f
5:36 24 32 mph 996mb 47f 55f
5:30 24 37 mph 995.9mb 46f 55f
5:24 25 33 mph 996mb 46f 55f
5:18 26 34 mph 996mb 46f 55f
5:12 25 39 mph 995.9mb 46f 55f
5:06 29 37 mph 995.8mb 46f 55f
5:00 28 37 mph 995.6mb 46f 55f
4:36 23 33 mph 995.2mb 46f 54f
4:30 20 33 mph 995.2mb 46f 54f
4:24 18 33 mph - - 55f
4:18 21 32 mph 995.2mb 46f 54f
4:12 18 31 mph 995mb 46f 54f
4:06 17 29 mph 994.8mb 46f 54f
4:00 18 26 mph 994.8mb 46f 54f
3:36 18 30 mph 994.4mb 46f 54f
3:30 20 26 mph 994.1mb 46f 53f
3:24 20 26 mph 993.9mb 46f 53f
3:18 18 28 mph 993.8mb 46f 53f
3:12 20 25 mph 994.1mb 46f 53f
3:06 18 26 mph 994.1mb 46f 53f
3:00 21 26 mph - - 53f
2:36 20 24 mph 994.2mb 46f 53f
2:30 20 24 mph 994.4mb 46f 53f
2:24 17 24 mph 994.5mb 46f 53f
2:18 17 22 mph 994.7mb 46f 54f
2:12 17 23 mph 994.8mb 46f 54f
2:06 16 22 mph 995.1mb 46f 53f
2:00 17 23 mph 995.1mb 47f 53f
1:36 18 23 mph 995.2mb 47f 53f
1:30 17 24 mph 995.3mb 47f 53f
1:24 17 25 mph 995.5mb 46f 53f
1:18 17 25 mph 995.8mb 47f 52f
1:12 15 26 mph 996mb 47f 51f
1:06 17 24 mph 996.1mb 47f 51f
1:00 13 25 mph 996mb 47f 51f
12:36  -  mph 995.8mb 47f -
12:30  -  mph 996mb 47f -
12:24  -  mph 996.2mb 47f -
12:18  -  mph 996.2mb 48f -
12:12  -  mph 996.2mb 48f -
12:06  -  mph 996.4mb 48f -
12:00  -  mph 996.4mb 49f -
11:36 11 24 mph 996.9mb 49f 51f
11:30 10 17 mph 996.9mb 49f 51f
11:24 11 18 mph 996.9mb 49f 50f
11:18 11 18 mph 997mb 49f 50f
11:12 7 15 mph 997mb 50f 50f
11:06 11 16 mph 997.1mb 50f 50f
11:00 10 26 mph 997.2mb 49f 50f
10:36 10 16 mph 997.7mb 50f 50f
10:30 8 16 mph 997.7mb 50f 50f
10:24 8 14 mph 997.8mb 50f 50f
10:18 7 14 mph 997.9mb 50f 50f
10:12 10 16 mph 997.9mb 50f 50f
10:06 8 13 mph 998mb 50f 49f
10:00 7 16 mph 998mb 50f 49f
9:36 7 13 mph 998.1mb 49f 49f
9:30 6 13 mph 998.2mb 49f 49f
9:24 6 10 mph 998.2mb 49f 49f
9:18 6 10 mph 998.1mb 49f 49f
9:12 6 11 mph 998.1mb 49f 49f
9:06 8 11 mph 998mb 49f 49f
9:00 8 15 mph 998mb 49f 49f
8:36 8 14 mph 998mb 49f 49f
8:30 6 10 mph 998mb 48f 49f
8:24 8 15 mph 997.9mb 48f 49f
8:18 9 18 mph 997.9mb 48f 49f
8:12 7 15 mph 997.9mb 48f 49f
8:06 7 15 mph 997.8mb 48f 49f
8:00 10 21 mph 997.8mb 47f 49f
7:36 8 15 mph 998.1mb 46f 49f
7:30 9 16 mph 998.3mb 46f 49f
7:24 8 18 mph 998.4mb 46f 48f
7:18 7 16 mph 998.4mb 45f 48f
7:12 8 18 mph 998.4mb 45f 48f
7:06 9 20 mph 998.5mb 45f 48f
7:00 11 23 mph 998.5mb 45f 47f
6:36 11 23 mph 998.4mb 45f 47f
6:30 11 22 mph 998.7mb 45f 47f
6:24 13 23 mph 998.8mb 45f 47f
6:18 8 18 mph 998.8mb 45f 47f
6:12 6 16 mph 998.8mb 45f 47f
6:06 13 23 mph 998.9mb 45f 47f
6:00 9 14 mph 998.7mb 45f 47f
5:54 13 18 mph 998.7mb 45f 47f
5:48 11 21 mph 998.7mb 45f 47f
5:36 11 20 mph 998.6mb 45f 47f
5:30 8 22 mph 998.7mb 45f 47f
5:24 11 18 mph 999.2mb 45f 47f
5:18 11 22 mph 999.4mb 45f 47f
5:12 9 22 mph 999.3mb 45f 47f
5:06 10 22 mph 999.3mb 45f 47f
5:00 13 24 mph 999.4mb 45f 47f
4:54 10 17 mph 999.6mb 45f 47f
4:48 10 17 mph 999.7mb 45f 47f
4:36 13 21 mph 999.9mb 45f 47f
4:30 11 16 mph 1000.1mb 45f 47f
4:24 11 21 mph 1000.2mb 45f 47f
4:18 11 21 mph 1000.4mb 45f 47f
4:12 8 20 mph 1000.4mb 45f 47f
4:06 14 23 mph 1000.7mb 45f 47f
4:00 7 29 mph 1001mb 45f 47f
3:54 10 17 mph 1001mb 45f 47f
3:48 11 22 mph 1000.9mb 45f 47f
3:36 11 26 mph - - 47f
3:30 8 22 mph 1001.1mb 45f 47f
3:24 11 22 mph 1001.2mb 45f 47f
3:18 13 20 mph 1001.3mb 45f 47f
3:12 9 17 mph 1001.4mb 45f 48f
3:06 11 21 mph 1001.5mb 45f 48f
3:00 15 26 mph 1001.6mb 45f 48f
2:54 17 26 mph 1001.7mb 45f 48f
2:48 15 24 mph 1001.9mb 45f 48f
2:36 10 21 mph 1002mb 45f 48f
2:30 11 22 mph 1002mb 45f 48f
2:24 16 22 mph 1002.1mb 45f 48f
2:18 11 22 mph 1002.3mb 45f 48f
2:12 13 21 mph 1002.5mb 45f 48f
2:06 14 24 mph 1002.6mb 45f 48f
2:00 10 24 mph 1002.7mb 45f 47f
1:54 13 23 mph 1002.7mb 45f 47f
1:48 11 21 mph 1002.9mb 45f 47f
1:36 11 20 mph 1003.2mb 45f 47f
1:30 9 28 mph 1003.4mb 45f 47f
1:24 11 24 mph 1003.6mb 46f 48f
1:18 16 25 mph 1003.7mb 46f 48f
1:12 15 25 mph 1003.8mb 46f 48f
1:06 11 25 mph 1004.1mb 46f 48f
1:00 9 17 mph 1004.3mb 46f 48f
12:54 14 24 mph 1004.5mb 46f 47f
12:48 8 21 mph 1004.7mb 46f 47f
12:36 14 21 mph 1005mb 46f 47f
12:30 9 22 mph 1005.1mb 46f 47f
12:24 13 22 mph 1005.3mb 46f 47f
12:18 8 18 mph 1005.4mb 46f 47f
12:12 13 25 mph 1005.6mb 46f 47f
12:06 15 29 mph 1005.7mb 46f 48f
12:00 10 20 mph 1005.8mb 47f 48f
vie 12/19 11:54 9 24 mph 1005.7mb 46f 48f
11:48 11 21 mph 1005.7mb 47f 48f
11:36 10 22 mph 1005.9mb 47f 48f
11:30 8 21 mph 1005.8mb 47f 48f
11:24 14 25 mph 1006mb 47f 48f
11:18 11 25 mph 1006.3mb 47f 48f
11:12 15 25 mph 1006.4mb 47f 48f
11:06 15 29 mph 1006.6mb 47f 48f
11:00 13 30 mph 1006.8mb 47f 48f
10:54 11 20 mph 1006.9mb 47f 48f
10:48 15 29 mph 1006.9mb 47f 48f
10:36 14 25 mph 1006.7mb 47f 49f
10:30 11 17 mph 1006.7mb 47f 49f
10:24 13 20 mph 1006.8mb 47f 49f
10:18 9 16 mph 1007mb 46f 49f
10:12 14 22 mph 1007.2mb 46f 49f
10:06 10 17 mph 1007.3mb 46f 49f
10:00 8 16 mph 1007.4mb 46f 48f
9:54 10 15 mph 1007.6mb 46f 48f
9:48 11 17 mph 1007.7mb 46f 48f
9:36 8 16 mph 1007.6mb 46f 48f
9:30 7 17 mph 1007.6mb 46f 48f
9:24 9 17 mph 1007.6mb 46f 48f
9:18 7 16 mph 1007.6mb 45f 48f
9:12 9 21 mph 1007.6mb 45f 48f
9:06 10 18 mph 1007.7mb 45f 47f
9:00 8 14 mph - - 47f
8:54 9 15 mph 1008.1mb 45f 48f
8:48 8 15 mph 1008.2mb 45f 48f
8:36 14 23 mph 1008.3mb 45f 48f
8:30 8 20 mph 1008.5mb 45f 48f
8:24 10 18 mph 1008.6mb 45f 48f
8:18 9 17 mph 1008.8mb 45f 48f
8:12 9 18 mph 1008.9mb 45f 48f
8:06 9 14 mph 1009.1mb 45f 48f
8:00 11 18 mph 1009.1mb 45f 48f
7:54 11 22 mph 1009.3mb 45f 47f
7:48 8 20 mph 1009.4mb 45f 47f
7:36 9 23 mph 1009.5mb 45f 48f
7:30 13 17 mph 1009.5mb 45f 47f
7:24 7 15 mph 1009.6mb 44f 47f
7:18 10 16 mph 1009.7mb 44f 47f
7:12 11 20 mph 1009.7mb 44f 47f
7:06 9 16 mph 1009.8mb 44f 47f
7:00 7 20 mph 1009.8mb 44f 47f
6:54 9 15 mph 1009.8mb 44f 47f
6:48 11 20 mph 1009.9mb 44f 48f
6:36 9 17 mph 1009.9mb 44f 48f
6:30 14 23 mph 1010mb 44f 48f
6:24 13 16 mph 1010.1mb 44f 48f
6:18 8 18 mph 1010.1mb 45f 48f
6:12 9 15 mph 1010.2mb 45f 47f
6:06 7 17 mph 1010.3mb 45f 47f
6:00 8 14 mph 1010.2mb 45f 48f
5:54 10 15 mph 1010.3mb 45f 48f
5:48 6 14 mph 1010.4mb 44f 48f
5:36 9 17 mph 1010.5mb 44f 49f
5:30 9 17 mph 1010.7mb 44f 49f
5:24 8 20 mph 1010.7mb 44f 49f
5:18 10 20 mph 1010.8mb 44f 49f
5:12 9 16 mph 1010.8mb 44f 49f
5:06 13 18 mph 1010.8mb 44f 49f
5:00 7 10 mph 1010.8mb 44f 49f
4:54 7 10 mph 1010.8mb 44f 49f
4:48 8 11 mph 1010.7mb 45f 49f
4:36 9 17 mph 1010.6mb 45f 49f
4:30 5 14 mph 1010.7mb 45f 49f
4:24 9 14 mph 1010.6mb 45f 49f
4:18 7 16 mph 1010.5mb 45f 50f
4:12 8 15 mph 1010.5mb 45f 51f
4:06 8 15 mph 1010.3mb 45f 50f
4:00 6 16 mph - - 49f
3:54 7 16 mph 1010.2mb 45f 49f
3:48 11 16 mph 1010.3mb 45f 49f
3:36 20 24 mph 1010.1mb 45f 51f
3:30 11 17 mph 1010.2mb 45f 50f
3:24 9 15 mph 1010.3mb 45f 48f
3:18 5 7 mph 1010.5mb 45f 49f
3:12 7 13 mph 1010.6mb 45f 49f
3:06 11 18 mph 1010.6mb 45f 48f
3:00 15 22 mph 1010.6mb 46f 49f
2:54 13 23 mph 1010.8mb 46f 49f
2:48 14 23 mph 1010.7mb 46f 49f
2:36  -  mph 1010.6mb 46f -
2:30  -  mph 1010.4mb 46f -
2:24  -  mph 1010.4mb 46f -
2:18  -  mph 1010.4mb 46f -
2:12  -  mph 1010.6mb 46f -
2:06  -  mph 1010.7mb 46f -
2:00  -  mph 1010.7mb 46f -
1:54  -  mph 1010.8mb 46f -
1:48  -  mph 1010.8mb 46f -
1:36 14 20 mph 1010.8mb 46f 49f
1:30 8 11 mph 1010.8mb 46f 49f
1:24 9 15 mph 1010.8mb 46f 49f
1:18 8 14 mph - - 50f
1:12 10 15 mph 1010.8mb 46f 50f
1:06 9 16 mph 1010.7mb 46f 50f
1:00 8 18 mph 1010.7mb 46f 51f
12:54 13 22 mph 1010.7mb 46f 51f
12:48 14 26 mph 1010.7mb 46f 51f
12:36 13 21 mph 1010.6mb 46f 51f
12:30 17 24 mph 1010.6mb 46f 51f
12:24 18 26 mph 1010.6mb 46f 52f
12:18 22 25 mph 1010.6mb 46f 52f
12:12 18 28 mph 1010.7mb 46f 51f
12:06 15 28 mph 1010.7mb 47f 49f
12:00 24 32 mph 1010.7mb 47f 48f
11:54 7 18 mph 1010.8mb 47f 47f
11:48 5 11 mph 1010.8mb 47f 46f
11:36  -  mph 1010.9mb 47f -
11:30  -  mph 1010.9mb 47f -
11:24  -  mph 1011mb 48f -
11:18  -  mph 1011.1mb 48f -
11:12  -  mph 1011.2mb 48f -
11:06  -  mph 1011.2mb 48f -
11:00  -  mph 1011.1mb 49f -
10:54  -  mph 1011.3mb 49f -
10:48  -  mph 1011.3mb 49f -
10:36 7 13 mph 1011.4mb 50f 45f
10:30 5 11 mph 1011.5mb 50f 45f
10:24 5 10 mph 1011.5mb 50f 45f
10:18 7 11 mph 1011.4mb 50f 46f
10:12 8 13 mph 1011.4mb 51f 46f
10:06 7 13 mph 1011.1mb 51f 46f
10:00 6 13 mph - - 46f
9:54 6 11 mph 1010.7mb 51f 46f
9:48 9 14 mph 1010.8mb 51f 46f
9:36 5 11 mph 1010.6mb 51f 47f
9:30 9 15 mph 1010.6mb 51f 47f
9:24 7 21 mph 1010.5mb 51f 47f
9:18 9 13 mph - - 47f
9:12 6 14 mph 1010.4mb 51f 47f
9:06 14 17 mph 1010.3mb 51f 47f
9:00 10 16 mph 1010.2mb 51f 47f
8:54 13 17 mph 1010.2mb 51f 47f
8:48 6 15 mph 1009.6mb 51f 47f
8:36 6 14 mph 1009.4mb 51f 47f
8:30 6 10 mph 1009.5mb 51f 47f
8:24 3 7 mph 1009.5mb 51f 47f
8:18 6 11 mph 1009.4mb 51f 46f
8:12 5 14 mph 1009.4mb 51f 46f
8:06 5 8 mph 1009.4mb 51f 47f
8:00 5 9 mph 1009.3mb 51f 47f
7:54 6 11 mph 1009.2mb 51f 47f
7:48 6 9 mph 1009mb 51f 48f
7:36 11 16 mph 1008.8mb 51f 49f
7:30 8 13 mph 1008.8mb 51f 50f
7:24 9 16 mph 1008.7mb 51f 50f
7:18 14 18 mph 1008.8mb 51f 50f
7:12 10 17 mph 1008.7mb 51f 49f
7:06 8 15 mph 1008.7mb 51f 49f
7:00 6 15 mph 1008.6mb 51f 49f
6:54 8 16 mph 1008.6mb 51f 50f
6:48 14 17 mph 1008.6mb 51f 47f
6:36 5 14 mph 1008.5mb 51f 48f
6:30 5 9 mph 1008.4mb 50f 48f
6:24 6 9 mph 1008.4mb 50f 48f
6:18 6 9 mph 1008.3mb 50f 48f
6:12 7 10 mph 1008.4mb 50f 49f
6:06 9 16 mph 1008.4mb 49f 48f
6:00 5 13 mph 1008.3mb 49f 49f
5:54 9 15 mph 1008.2mb 48f 48f
5:48 8 13 mph 1008.1mb 48f 49f
5:36 10 13 mph 1008.1mb 47f 47f
5:30 7 11 mph 1007.9mb 47f 48f
5:24 9 14 mph 1007.9mb 46f 48f
5:18 8 14 mph 1007.8mb 46f 48f
5:12 9 14 mph 1007.7mb 46f 48f
5:06 9 13 mph 1007.8mb 45f 47f
5:00 6 8 mph 1007.7mb 45f 47f
4:54 9 11 mph 1007.7mb 45f 47f
4:48 9 14 mph 1007.8mb 45f 47f
4:36 17 25 mph 1008.2mb 46f 47f
4:30 18 29 mph 1007.9mb 46f 50f
4:24 22 26 mph 1007.7mb 46f 51f
4:18 18 25 mph 1007.6mb 46f 50f
4:12 22 26 mph 1007.7mb 46f 51f
4:06 21 33 mph 1007.6mb 46f 51f
4:00 18 25 mph 1007.5mb 46f 52f
3:54 15 21 mph 1007.3mb 46f 52f
3:48 16 21 mph 1007.2mb 46f 51f
3:36 13 20 mph 1007.1mb 46f 52f
3:30 15 18 mph 1007.1mb 46f 52f
3:24 16 21 mph 1007.1mb 46f 51f
3:18 14 17 mph 1007.1mb 46f 52f
3:12 16 22 mph 1007.1mb 46f 51f
3:06 14 17 mph 1007.1mb 46f 52f
3:00 13 21 mph 1007.1mb 46f 52f
2:54 14 18 mph 1007.1mb 46f 52f
2:48 15 20 mph 1007.1mb 46f 52f
2:36 14 16 mph 1007.1mb 46f 52f
2:30 14 17 mph 1007mb 46f 51f
2:24 14 18 mph 1007mb 46f 52f
2:18 14 17 mph 1006.9mb 46f 52f
2:12 14 18 mph 1006.9mb 46f 52f
2:06 14 20 mph 1006.8mb 46f 52f
2:00 15 22 mph 1006.7mb 46f 52f
1:54 17 20 mph 1006.6mb 47f 52f
1:48 17 23 mph 1006.5mb 47f 52f
1:36 14 21 mph 1006.4mb 47f 52f
1:30 16 22 mph 1006.2mb 47f 52f
1:24 13 21 mph 1006.1mb 48f 51f
1:18 13 26 mph 1006mb 48f 52f
1:12 15 20 mph 1005.9mb 49f 52f
1:06 16 22 mph 1006mb 49f 52f
1:00 16 20 mph 1005.9mb 49f 52f
12:54 18 25 mph 1005.9mb 50f 52f
12:48 17 23 mph 1005.8mb 50f 52f
12:36 15 20 mph 1005.6mb 51f 52f
12:30 15 21 mph 1005.6mb 51f 52f
12:24 15 21 mph 1005.5mb 51f 52f
12:18 16 22 mph 1005.5mb 51f 52f
12:12 17 22 mph 1005.4mb 51f 52f
12:06 17 22 mph 1005.4mb 51f 52f
12:00 20 25 mph 1005.4mb 51f 52f
jue 12/18 11:54 17 23 mph 1005.3mb 51f 52f
11:48 14 25 mph 1005.3mb 51f 52f
11:36 21 29 mph 1005mb 51f 53f
11:30 23 28 mph 1005mb 51f 53f
11:24 17 23 mph 1004.8mb 51f 52f
11:18 14 25 mph 1004.8mb 51f 52f
11:12 18 23 mph 1004.7mb 51f 53f
11:06 16 21 mph 1004.7mb 51f 53f
11:00 18 22 mph 1004.7mb 51f 53f
10:54 16 23 mph 1004.6mb 51f 53f
10:48 15 22 mph 1004.5mb 51f 53f
10:36 16 22 mph 1004.4mb 51f 53f
10:30 15 21 mph 1004.3mb 51f 53f
10:24 16 21 mph 1004.3mb 51f 52f
10:18 15 20 mph 1004.3mb 51f 51f
10:12 13 20 mph 1004.3mb 51f 51f
10:06 9 17 mph 1004.3mb 51f 51f
10:00 14 22 mph 1004.2mb 51f 51f
9:54 14 20 mph 1004.2mb 51f 50f
9:48 11 21 mph 1004.2mb 51f 50f
9:36 10 16 mph 1004.2mb 51f 51f
9:30 9 21 mph 1004.2mb 51f 51f
9:24 9 22 mph 1004.1mb 51f 50f
9:18 9 16 mph 1004.1mb 51f 50f
9:12 9 15 mph 1004mb 51f 50f
9:06 7 17 mph 1003.9mb 51f 50f
9:00 10 14 mph 1003.9mb 51f 50f
8:54 7 13 mph 1003.8mb 51f 49f
8:48 9 14 mph 1003.8mb 51f 49f
8:36 6 10 mph - - 49f
8:30 6 10 mph 1003.7mb 51f 49f
8:24 5 10 mph 1003.5mb 51f 49f
8:18 5 9 mph 1003.3mb 51f 49f
8:12 7 10 mph 1003.3mb 51f 48f
8:06 6 9 mph 1003.2mb 51f 48f
8:00 3 6 mph 1003mb 51f 48f
7:54 3 8 mph 1003mb 51f 48f
7:48 2 6 mph 1002.9mb 51f 48f
7:36 6 8 mph 1002.7mb 51f 48f
7:30 6 10 mph 1003mb 51f 48f
7:24 8 13 mph 1003mb 51f 48f
7:18 7 11 mph 1002.9mb 50f 49f
7:12 7 11 mph 1002.9mb 50f 49f
7:06 9 11 mph 1002.8mb 50f 49f
7:00 9 15 mph 1002.6mb 50f 49f
6:54 9 25 mph 1002.3mb 49f 51f
6:48 17 30 mph 1002.1mb 49f 51f
6:36 13 21 mph 1001.9mb 47f 50f
6:30 13 20 mph 1001.5mb 47f 50f
6:24 11 26 mph 1001.5mb 46f 50f
6:18 15 24 mph 1001.4mb 46f 50f
6:12 10 20 mph 1001.5mb 45f 50f
6:06 14 25 mph 1001.5mb 45f 50f
6:00 13 28 mph 1001.6mb 45f 50f
5:54 14 24 mph 1001.5mb 45f 50f
5:48 17 29 mph 1001.5mb 45f 50f
5:36 10 25 mph 1001.6mb 45f 50f
5:30 14 24 mph 1001.6mb 45f 50f
5:24 10 26 mph 1001.8mb 45f 50f
5:18 16 25 mph 1001.9mb 45f 49f
5:12 13 23 mph 1001.9mb 45f 49f
5:06 15 22 mph 1002.2mb 45f 49f
5:00 11 17 mph 1002.2mb 45f 49f
4:54 10 28 mph - - 49f
4:48 10 17 mph 1002.2mb 45f 49f
4:36  -  mph 1002.5mb 45f -
4:30  -  mph 1002.7mb 45f -
4:24  -  mph 1002.8mb 45f -
4:18  -  mph 1003mb 45f -
4:12  -  mph 1003.1mb 45f -
4:06  -  mph 1003.2mb 45f -
4:00  -  mph 1003.2mb 45f -
3:54  -  mph 1003.2mb 45f -
3:48  -  mph 1003.3mb 45f -
3:36 14 33 mph - - 50f
3:30 14 23 mph 1003.4mb 45f 51f
3:24 20 32 mph 1003.5mb 45f 51f
3:18 16 29 mph 1003.6mb 45f 51f
3:12 13 21 mph 1003.7mb 45f 51f
3:06 13 23 mph 1003.5mb 45f 51f
3:00 14 30 mph 1003.5mb 45f 52f
2:54 16 28 mph 1003.6mb 45f 52f
2:48 11 20 mph 1003.7mb 46f 52f
2:36 13 28 mph 1004mb 46f 52f
2:30 13 26 mph 1003.9mb 46f 52f
2:24 15 31 mph 1003.9mb 46f 52f
2:18 20 30 mph 1003.9mb 46f 52f
2:12 16 23 mph 1004.1mb 46f 52f
2:06 11 30 mph 1004.2mb 46f 52f
2:00 14 24 mph 1004.4mb 46f 52f
1:54 16 24 mph 1004.4mb 46f 52f
1:48 10 23 mph 1004.5mb 47f 52f
1:36 15 26 mph 1004.8mb 46f 52f
1:30 16 25 mph 1005.1mb 46f 52f
1:24 15 36 mph 1005.2mb 47f 52f
1:18 20 30 mph 1005.1mb 47f 52f
1:12 15 25 mph 1005.2mb 47f 52f
1:06 15 26 mph 1005.3mb 47f 52f
1:00 16 28 mph 1005.4mb 47f 52f
12:54 13 21 mph 1005.6mb 48f 52f
12:48 14 23 mph 1005.6mb 48f 52f
12:36 14 17 mph 1005.8mb 48f 51f
12:30 8 15 mph 1005.7mb 49f 51f
12:24 10 20 mph 1005.7mb 50f 51f
12:18 10 21 mph 1005.8mb 50f 51f
12:12 13 22 mph 1005.9mb 51f 51f
12:06 8 16 mph 1006.1mb 51f 50f
12:00 9 16 mph 1006.3mb 51f 50f
11:54 7 15 mph 1006.5mb 51f 50f
11:48 6 11 mph - - 50f
11:36 5 9 mph 1006.9mb 51f 49f
11:30 7 13 mph 1006.9mb 51f 49f
11:24 5 10 mph 1007.1mb 51f 49f
11:18 6 14 mph 1007.2mb 51f 49f
11:12 6 10 mph 1007.4mb 51f 49f
11:06 7 13 mph 1007.3mb 51f 49f
11:00 9 13 mph 1007.5mb 51f 49f
10:54 8 11 mph 1007.5mb 52f 48f
10:48 6 10 mph 1007.6mb 52f 48f
10:36 7 13 mph 1007.7mb 52f 48f
10:30 7 11 mph 1008mb 52f 48f
10:24 6 11 mph 1008.3mb 52f 47f
10:18 5 11 mph 1008.3mb 52f 47f
10:12 6 9 mph 1008.3mb 52f 47f
10:06 6 13 mph 1008.6mb 52f 47f
10:00 6 9 mph 1008.7mb 52f 47f
9:54 6 10 mph - - 47f
9:48 7 11 mph 1008.7mb 52f 47f
9:36 6 10 mph 1009mb 52f 47f
9:30 6 10 mph 1008.9mb 52f 47f
9:24 7 10 mph 1009.1mb 52f 47f
9:18 7 11 mph 1009.1mb 52f 47f
9:12 6 10 mph 1009.1mb 52f 47f
9:06 5 8 mph 1009.2mb 52f 47f
9:00 6 9 mph - - 47f
8:54 6 13 mph 1009.5mb 52f 47f
8:48 5 9 mph 1009.7mb 52f 47f
8:36 5 10 mph 1009.8mb 52f 47f
8:30 7 9 mph 1009.7mb 52f 47f
8:24 6 8 mph 1009.7mb 52f 47f
8:18 3 7 mph 1009.8mb 52f 47f
8:12 6 9 mph 1009.8mb 52f 47f
8:06 5 8 mph 1009.9mb 52f 47f
8:00 5 7 mph 1010.1mb 52f 47f
7:54 5 10 mph - - 47f
7:48 7 11 mph 1010.2mb 52f 47f
7:36 6 10 mph 1010.3mb 52f 47f
7:30 6 14 mph 1010.3mb 52f 47f
7:24 6 10 mph 1010.5mb 52f 47f
7:18 7 11 mph 1010.5mb 52f 47f
7:12 7 13 mph 1010.5mb 52f 47f
7:06 7 11 mph 1010.5mb 52f 47f
7:00 7 13 mph 1010.4mb 52f 47f
6:54 6 10 mph 1010.4mb 52f 47f
6:48 7 13 mph 1010.4mb 52f 46f
6:36 5 7 mph - - 46f
6:30 6 10 mph 1010.6mb 52f 46f
6:24 3 8 mph 1010.7mb 52f 46f
6:18 3 9 mph 1010.8mb 52f 46f
6:12 5 8 mph 1010.9mb 52f 46f
6:06 6 11 mph 1010.9mb 52f 47f
6:00 6 10 mph 1011.1mb 52f 46f
5:54 5 7 mph 1011.2mb 51f 46f
5:48 5 7 mph 1011.2mb 51f 46f
5:36 5 7 mph 1011.3mb 51f 46f
5:30 5 9 mph 1011.3mb 51f 46f
5:24 3 9 mph 1011.4mb 51f 47f
5:18 3 8 mph 1011.4mb 51f 47f
5:12 6 7 mph 1011.5mb 51f 47f
5:06 5 9 mph 1011.5mb 51f 47f
5:00 5 7 mph 1011.6mb 50f 47f
4:54 6 9 mph 1011.6mb 50f 47f
4:48 5 7 mph 1011.6mb 49f 47f
4:36 5 9 mph 1011.4mb 47f 47f
4:30 6 8 mph 1011.4mb 47f 47f
4:24 5 10 mph 1011.4mb 46f 47f
4:18 5 9 mph 1011.4mb 46f 47f
4:12 6 8 mph 1011.4mb 46f 47f
4:06 5 8 mph 1011.5mb 45f 47f
4:00 6 9 mph 1011.5mb 45f 46f
3:54 5 8 mph 1011.5mb 45f 46f
3:48 3 10 mph 1011.6mb 45f 46f
3:36 3 6 mph 1011.8mb 45f 46f
3:30 6 8 mph 1011.9mb 45f 45f
3:24 5 7 mph 1011.8mb 45f 45f
3:18 3 5 mph 1011.8mb 45f 45f
3:12 3 5 mph 1011.8mb 45f 45f
3:06 5 6 mph 1011.9mb 45f 45f
3:00 5 6 mph 1011.8mb 45f 45f
2:54 5 7 mph 1011.8mb 45f 45f
2:48 5 7 mph 1011.8mb 45f 45f
2:36 5 6 mph 1011.8mb 45f 45f
2:30 5 6 mph 1011.8mb 45f 45f
2:24 3 6 mph 1011.8mb 45f 45f
2:18 3 6 mph 1011.8mb 45f 45f
2:12 3 5 mph 1011.9mb 45f 45f
2:06 1 2 mph 1011.9mb 45f 45f
2:00 2 3 mph 1011.9mb 45f 45f
1:54 3 5 mph 1011.8mb 45f 46f
1:48 2 5 mph 1011.9mb 45f 46f
1:36 3 5 mph 1011.9mb 45f 46f
1:30 2 3 mph 1011.9mb 45f 46f
1:24 2 5 mph 1011.8mb 45f 46f
1:18 2 5 mph 1011.9mb 46f 46f
1:12 3 7 mph 1011.9mb 46f 46f
1:06 3 6 mph 1011.9mb 46f 46f
1:00 3 5 mph 1012mb 46f 46f
12:54 3 5 mph 1011.9mb 46f 46f
12:48 3 6 mph 1012mb 46f 46f
12:36 3 5 mph 1012.1mb 46f 46f
12:30 2 6 mph 1012mb 46f 46f
12:24 3 6 mph 1012mb 46f 46f
12:18 2 6 mph 1012.1mb 47f 46f
12:12 3 6 mph 1012mb 47f 46f
12:06 3 6 mph 1012.1mb 47f 46f
12:00 3 6 mph 1012.1mb 47f 46f
mié 12/17 11:54 3 7 mph 1012.1mb 47f 46f
11:48 2 6 mph 1012.1mb 47f 46f
11:36 6 7 mph 1012.1mb 48f 46f
11:30 3 6 mph 1012.2mb 48f 46f
11:24 5 7 mph 1012.2mb 49f 46f
11:18 3 6 mph 1012.1mb 49f 46f
11:12 6 7 mph 1012.1mb 49f 46f
11:06 3 6 mph 1012mb 50f 46f
11:00 5 6 mph 1012mb 51f 46f
10:54 3 6 mph 1011.9mb 51f 46f
10:48 3 7 mph 1011.9mb 51f 46f
10:36 5 6 mph 1011.9mb 51f 46f
10:30 3 6 mph 1011.9mb 51f 46f
10:24 5 6 mph 1011.8mb 51f 46f
10:18 3 6 mph 1011.8mb 51f 46f
10:12 3 6 mph 1011.7mb 51f 46f
10:06 6 7 mph 1011.6mb 52f 46f
10:00 5 7 mph 1011.7mb 52f 46f
9:54 3 5 mph 1011.7mb 52f 46f
9:48 3 7 mph 1011.7mb 52f 46f
9:36 3 6 mph 1011.7mb 52f 46f
9:30 3 6 mph - - 46f
9:24 3 5 mph 1011.7mb 52f 46f
9:18 3 7 mph 1011.7mb 52f 46f
9:12 5 6 mph 1011.8mb 52f 46f
9:06 3 5 mph 1011.8mb 52f 46f
9:00 3 6 mph 1011.8mb 52f 46f
8:36 3 5 mph 1011.7mb 52f 46f
8:30 5 6 mph 1011.7mb 51f 46f
8:24 3 5 mph 1011.6mb 51f 46f
8:18 3 6 mph 1011.6mb 51f 46f
8:12 3 5 mph 1011.6mb 51f 46f
8:06 3
mph
1011.6mb 51f 46f
8:00 2 5 mph 1011.6mb 51f 46f
7:54 3 5 mph 1011.5mb 51f 46f
7:48 3 6 mph 1011.5mb 51f 46f
7:36 3 6 mph 1011.6mb 51f 46f
7:30 5 6 mph 1011.6mb 51f 46f
7:24 5 6 mph 1011.5mb 51f 46f
7:18 5 6 mph 1011.5mb 51f 47f
7:12 5 7 mph 1011.5mb 51f 47f
7:06 5 6 mph 1011.4mb 51f 47f
7:00 5 6 mph 1011.4mb 50f 47f
6:54 5
mph
1011.4mb 50f 47f
6:48 3 5 mph 1011.3mb 49f 47f
6:36 3 5 mph 1011.2mb 48f 47f
6:30 3 5 mph 1011.2mb 47f 47f
6:24 2 5 mph 1011.1mb 47f 47f
6:18 3 5 mph 1011.1mb 46f 47f
6:12 2 5 mph 1011mb 46f 47f
6:06 1 5 mph 1011mb 45f 47f
6:00 3 5 mph 1010.8mb 45f 47f
5:54 3 7 mph 1010.9mb 45f 47f
5:48 3 7 mph 1010.8mb 45f 48f
5:36 6 7 mph 1010.8mb 45f 48f
5:30 2 5 mph 1010.8mb 45f 48f
5:24 3 6 mph 1010.8mb 45f 48f
5:18 3 6 mph 1010.8mb 45f 48f
5:12 3 6 mph 1010.7mb 45f 48f
5:06 3 6 mph 1010.7mb 45f 48f
5:00 3 6 mph 1010.7mb 45f 48f
4:54 2 5 mph 1010.7mb 45f 48f
4:48 2 6 mph 1010.7mb 45f 48f
4:36 3 6 mph 1010.4mb 45f 48f
4:30 5 9 mph 1010.4mb 45f 48f
4:24 3 7 mph 1010.5mb 45f 48f
4:18 5 8 mph 1010.3mb 45f 49f
4:12 5 6 mph 1010.2mb 45f 48f
4:06 2 6 mph 1010.1mb 45f 49f
4:00 3 8 mph 1010mb 45f 48f
3:54 3 8 mph 1010.1mb 45f 48f
3:48 5 6 mph 1010mb 45f 49f
3:36 3 5 mph - - 49f
3:30 2 5 mph 1009.8mb 45f 49f
3:24 5 7 mph 1009.7mb 45f 49f
3:18 5 7 mph 1009.7mb 45f 48f
3:12 2 5 mph 1009.7mb 45f 49f
3:06 5 7 mph 1009.8mb 45f 48f
3:00 2 6 mph 1009.7mb 45f 48f
2:54 2 5 mph 1009.6mb 45f 48f
2:48 3 5 mph 1009.6mb 45f 48f
2:36 3
mph
1009.5mb 45f 48f
2:30 3 7 mph 1009.4mb 45f 48f
2:24 6 8 mph 1009.3mb 45f 48f